Southern Ontario METAR Reports

CYSN - St.Catharines
Updated: 08/17/2018 9:00pm
NOT Current
Mostly cloudy
Mostly cloudy
 Wind from WNW
Wind: WNW 6 km/h
Temperature: 23°C
Dew Point: 23°C
Humidity: 100%
Barometer: 1012.2 hPa
Clouds: Mostly cloudy
Visibility: 24 km
Cloud details: Mostly cloudy 945 m
Mostly cloudy 3658 m
2018/08/18 01:00 CYSN 180100Z 30003KT 15SM BKN031 BKN120 23/23 A2989 RMK SC5AC2 LAST STFD OBS / NEXT 181100UTC SLP121 DENSITY ALT 1400FT
CYHM - Hamilton
Updated: 08/17/2018 10:40pm
Overcast
Overcast
 Wind from N
Wind: N 9 km/h
Temperature: 22°C
Dew Point: 22°C
Humidity: 100%
Barometer: 1012.9 hPa
Clouds: Overcast
Visibility: 24 km
Cloud details: Few Clouds 244 m
Partly cloudy 1280 m
Overcast 2286 m
2018/08/18 02:40 CYHM 180240Z 36005KT 15SM FEW008 SCT042TCU OVC075 22/22 A2991 RMK CF2TCU1AC5 SLP128 DENSITY ALT 1800FT
 
CYYZ - Toronto
Updated: 08/17/2018 10:45pm
Light rain, Overcast
Light rain, Overcast
 Wind from N
Wind: N 19 km/h
Temperature: 22°C
Dew Point: 20°C
Humidity: 88%
Barometer: 1012.9 hPa
Summary: Light rain
Clouds: Overcast
Visibility: 24 km
Cloud details: Partly cloudy 701 m
Overcast 1676 m
2018/08/18 02:45 CYYZ 180245Z 01010KT 15SM -RA SCT023 OVC055 22/20 A2991 RMK SC4SC4 SLP129 DENSITY ALT 1500FT
CYKF - Waterloo
Updated: 08/17/2018 10:55pm
Heavy rain, Nearby thunderstorm, Mist, Overcast
Heavy rain, Nearby thunderstorm, Mist, Overcast
 Wind from varies
Wind: varies 4 km/h
Temperature: 21°C
Dew Point: 20°C
Humidity: 94%
Barometer: 1013.9 hPa
Summary: Heavy rain, Nearby thunderstorm, Mist
Clouds: Overcast
Visibility: 2 km
Cloud details: Overcast 884 m
2018/08/18 02:55 CYKF 180255Z AUTO VRB02KT 2 1/2SM +RA VCTS BR OVC029 21/20 A2994 RMK SLP135 DENSITY ALT 1900FT
 
CYXU - London
Updated: 08/17/2018 10:00pm
Overcast
Overcast
 Wind from calm
Wind: Calm
Temperature: 22°C
Dew Point: 21°C
Humidity: 94%
Barometer: 1013.2 hPa
Clouds: Overcast
Visibility: 19 km
Cloud details: Mostly cloudy 2804 m
Overcast 4877 m
2018/08/18 02:00 CYXU 180200Z 00000KT 12SM BKN092 OVC160 22/21 A2992 RMK AC5AC3 SLP129 DENSITY ALT 2000FT
CYQG - Windsor
Updated: 08/17/2018 10:35pm
Overcast
Overcast
 Wind from N
Wind: N 11 km/h
Temperature: 23°C
Dew Point: 21°C
Humidity: 89%
Barometer: 1013.5 hPa
Clouds: Overcast
Visibility: 24 km
Cloud details: Few Clouds 1097 m
Mostly cloudy 2377 m
Overcast 4572 m
2018/08/18 02:35 CYQG 180235Z 35006KT 15SM FEW036TCU BKN078 OVC150 23/21 A2993 RMK TCU2AC3AC3 SLP134 DENSITY ALT 1700FT
 
CYZR - Sarnia
Updated: 08/17/2018 10:40pm
Overcast
Overcast
 Wind from N
Wind: N 15 km/h
Temperature: 22°C
Dew Point: 21°C
Humidity: 94%
Barometer: 1013.5 hPa
Clouds: Overcast
Visibility: 14 km
Cloud details: Mostly cloudy 396 m
Mostly cloudy 945 m
Overcast 1524 m
2018/08/18 02:40 CYZR 180240Z AUTO 01008KT 9SM BKN013 BKN031 OVC050 22/21 A2993 RMK RVR MISG SLP134 DENSITY ALT 1500FT
CYVV - Wiarton
Updated: 08/17/2018 10:00pm
Mostly cloudy
Mostly cloudy
 Wind from N
Wind: N 9 km/h
Temperature: 24°C
Dew Point: 20°C
Humidity: 78%
Barometer: 1013.5 hPa
Clouds: Mostly cloudy
Visibility: 24 km
Cloud details: Partly cloudy 1219 m
Mostly cloudy 2438 m
2018/08/18 02:00 CYVV 180200Z 36005KT 15SM SCT040 BKN080 24/20 A2993 RMK SC3AC4 WND ESTD SLP134 DENSITY ALT 1900FT
 
CYPQ - Peterborough
Updated: 08/17/2018 10:26pm
Light rain, Overcast
Light rain, Overcast
 Wind from N
Wind: N 7 km/h
Temperature: 21°C
Dew Point: 19°C
Humidity: 88%
Barometer: 1013.2 hPa
Summary: Light rain
Clouds: Overcast
Visibility: 14 km
Cloud details: Overcast 2591 m
2018/08/18 02:26 CYPQ 180226Z AUTO 01004KT 9SM -RA OVC085 21/19 A2992 RMK SLP131 DENSITY ALT 1400FT
CYTR - Trenton
Updated: 08/17/2018 10:43pm
Light rain, Showers, Overcast
Light rain, Showers, Overcast
 Wind from NE
Wind: NE 15 km/h
Temperature: 22°C
Dew Point: 19°C
Humidity: 83%
Barometer: 1011.9 hPa
Summary: Light rain, Showers
Clouds: Overcast
Visibility: 24 km
Cloud details: Mostly cloudy 975 m
Overcast 1890 m
2018/08/18 02:43 CYTR 180243Z 04008KT 15SM -SHRA BKN032 OVC062 22/19 A2988 RMK SC6SC2 SLP118